sensor_id;sensor_type;location;lat;lon;timestamp;pressure;altitude;pressure_sealevel;temperature;humidity
51147;BME280;37207;53.060;18.726;2023-03-15T00:01:42;99319.21;;;2.39;90.61
51147;BME280;37207;53.060;18.726;2023-03-15T00:04:12;99314.64;;;2.39;90.77
51147;BME280;37207;53.060;18.726;2023-03-15T00:06:39;99316.16;;;2.40;90.73
51147;BME280;37207;53.060;18.726;2023-03-15T00:09:06;99317.01;;;2.40;90.92
51147;BME280;37207;53.060;18.726;2023-03-15T00:11:33;99329.75;;;2.40;90.80
51147;BME280;37207;53.060;18.726;2023-03-15T00:14:00;99333.10;;;2.42;90.77
51147;BME280;37207;53.060;18.726;2023-03-15T00:16:27;99341.83;;;2.45;90.67
51147;BME280;37207;53.060;18.726;2023-03-15T00:18:54;99349.00;;;2.47;90.82
51147;BME280;37207;53.060;18.726;2023-03-15T00:21:22;99360.08;;;2.48;90.52
51147;BME280;37207;53.060;18.726;2023-03-15T00:23:49;99373.14;;;2.49;90.50
51147;BME280;37207;53.060;18.726;2023-03-15T00:26:16;99388.06;;;2.49;90.59
51147;BME280;37207;53.060;18.726;2023-03-15T00:28:43;99391.67;;;2.51;90.48
51147;BME280;37207;53.060;18.726;2023-03-15T00:31:18;99409.11;;;2.51;90.36
51147;BME280;37207;53.060;18.726;2023-03-15T00:33:45;99419.13;;;2.51;90.24
51147;BME280;37207;53.060;18.726;2023-03-15T00:36:12;99412.83;;;2.55;90.20
51147;BME280;37207;53.060;18.726;2023-03-15T00:38:40;99413.16;;;2.54;90.23
51147;BME280;37207;53.060;18.726;2023-03-15T00:41:14;99431.83;;;2.51;90.26
51147;BME280;37207;53.060;18.726;2023-03-15T00:43:42;99443.30;;;2.51;90.15
51147;BME280;37207;53.060;18.726;2023-03-15T00:46:10;99441.20;;;2.49;90.25
51147;BME280;37207;53.060;18.726;2023-03-15T00:48:37;99451.76;;;2.48;90.10
51147;BME280;37207;53.060;18.726;2023-03-15T00:51:06;99460.91;;;2.49;90.05
51147;BME280;37207;53.060;18.726;2023-03-15T00:53:34;99468.63;;;2.50;90.03
51147;BME280;37207;53.060;18.726;2023-03-15T00:56:10;99460.39;;;2.52;89.88
51147;BME280;37207;53.060;18.726;2023-03-15T00:58:38;99447.34;;;2.51;89.87
51147;BME280;37207;53.060;18.726;2023-03-15T01:01:14;99441.19;;;2.49;89.81
51147;BME280;37207;53.060;18.726;2023-03-15T01:03:41;99450.21;;;2.47;89.82
51147;BME280;37207;53.060;18.726;2023-03-15T01:06:10;99460.88;;;2.46;89.66
51147;BME280;37207;53.060;18.726;2023-03-15T01:08:38;99471.14;;;2.44;89.67
51147;BME280;37207;53.060;18.726;2023-03-15T01:11:07;99470.72;;;2.42;89.90
51147;BME280;37207;53.060;18.726;2023-03-15T01:13:35;99469.17;;;2.40;89.57
51147;BME280;37207;53.060;18.726;2023-03-15T01:16:02;99474.09;;;2.38;89.59
51147;BME280;37207;53.060;18.726;2023-03-15T01:18:29;99473.02;;;2.37;89.58
51147;BME280;37207;53.060;18.726;2023-03-15T01:20:57;99487.43;;;2.35;89.50
51147;BME280;37207;53.060;18.726;2023-03-15T01:23:24;99508.11;;;2.32;89.52
51147;BME280;37207;53.060;18.726;2023-03-15T01:25:50;99520.65;;;2.31;89.50
51147;BME280;37207;53.060;18.726;2023-03-15T01:28:17;99527.94;;;2.29;89.57
51147;BME280;37207;53.060;18.726;2023-03-15T01:30:50;99533.63;;;2.27;89.69
51147;BME280;37207;53.060;18.726;2023-03-15T01:33:18;99533.43;;;2.25;89.74
51147;BME280;37207;53.060;18.726;2023-03-15T01:35:45;99545.80;;;2.24;89.68
51147;BME280;37207;53.060;18.726;2023-03-15T01:38:12;99551.23;;;2.22;89.63
51147;BME280;37207;53.060;18.726;2023-03-15T01:40:41;99557.20;;;2.21;89.56
51147;BME280;37207;53.060;18.726;2023-03-15T01:43:19;99553.98;;;2.19;89.75
51147;BME280;37207;53.060;18.726;2023-03-15T01:48:26;99563.73;;;2.15;89.62
51147;BME280;37207;53.060;18.726;2023-03-15T01:50:55;99567.54;;;2.14;89.84
51147;BME280;37207;53.060;18.726;2023-03-15T01:53:24;99564.53;;;2.11;89.70
51147;BME280;37207;53.060;18.726;2023-03-15T01:55:53;99564.20;;;2.09;89.65
51147;BME280;37207;53.060;18.726;2023-03-15T01:58:27;99565.56;;;2.08;89.57
51147;BME280;37207;53.060;18.726;2023-03-15T02:00:54;99573.67;;;2.07;89.67
51147;BME280;37207;53.060;18.726;2023-03-15T02:03:33;99581.01;;;2.04;89.68
51147;BME280;37207;53.060;18.726;2023-03-15T02:06:05;99586.63;;;2.01;89.61
51147;BME280;37207;53.060;18.726;2023-03-15T02:08:48;99589.09;;;1.98;89.66
51147;BME280;37207;53.060;18.726;2023-03-15T02:11:20;99597.40;;;1.95;89.60
51147;BME280;37207;53.060;18.726;2023-03-15T02:13:48;99603.69;;;1.93;89.60
51147;BME280;37207;53.060;18.726;2023-03-15T02:16:16;99609.66;;;1.92;89.67
51147;BME280;37207;53.060;18.726;2023-03-15T02:18:47;99610.96;;;1.91;89.68
51147;BME280;37207;53.060;18.726;2023-03-15T02:27:13;99636.73;;;1.87;89.50
51147;BME280;37207;53.060;18.726;2023-03-15T02:29:41;99643.30;;;1.86;89.48
51147;BME280;37207;53.060;18.726;2023-03-15T02:32:08;99644.73;;;1.85;89.54
51147;BME280;37207;53.060;18.726;2023-03-15T02:34:34;99649.86;;;1.85;89.29
51147;BME280;37207;53.060;18.726;2023-03-15T02:37:02;99659.45;;;1.83;89.30
51147;BME280;37207;53.060;18.726;2023-03-15T02:39:29;99662.81;;;1.80;89.37
51147;BME280;37207;53.060;18.726;2023-03-15T02:41:57;99667.94;;;1.76;89.31
51147;BME280;37207;53.060;18.726;2023-03-15T02:44:34;99674.84;;;1.73;89.22
51147;BME280;37207;53.060;18.726;2023-03-15T02:47:05;99677.37;;;1.70;89.33
51147;BME280;37207;53.060;18.726;2023-03-15T02:49:37;99686.34;;;1.67;89.35
51147;BME280;37207;53.060;18.726;2023-03-15T02:52:05;99694.30;;;1.64;89.29
51147;BME280;37207;53.060;18.726;2023-03-15T02:54:32;99701.96;;;1.61;89.19
51147;BME280;37207;53.060;18.726;2023-03-15T02:57:00;99706.52;;;1.58;89.29
51147;BME280;37207;53.060;18.726;2023-03-15T02:59:28;99710.35;;;1.55;89.19
51147;BME280;37207;53.060;18.726;2023-03-15T03:01:54;99709.30;;;1.52;89.19
51147;BME280;37207;53.060;18.726;2023-03-15T03:04:21;99709.29;;;1.50;89.22
51147;BME280;37207;53.060;18.726;2023-03-15T03:06:48;99719.65;;;1.48;89.41
51147;BME280;37207;53.060;18.726;2023-03-15T03:09:18;99726.61;;;1.44;89.28
51147;BME280;37207;53.060;18.726;2023-03-15T03:11:45;99730.32;;;1.43;89.42
51147;BME280;37207;53.060;18.726;2023-03-15T03:14:12;99733.92;;;1.42;89.31
51147;BME280;37207;53.060;18.726;2023-03-15T03:16:40;99745.09;;;1.39;89.17
51147;BME280;37207;53.060;18.726;2023-03-15T03:19:11;99751.91;;;1.37;89.52
51147;BME280;37207;53.060;18.726;2023-03-15T03:21:38;99760.36;;;1.35;89.24
51147;BME280;37207;53.060;18.726;2023-03-15T03:24:04;99765.46;;;1.34;89.36
51147;BME280;37207;53.060;18.726;2023-03-15T03:26:31;99772.94;;;1.32;89.25
51147;BME280;37207;53.060;18.726;2023-03-15T03:28:59;99783.29;;;1.29;89.19
51147;BME280;37207;53.060;18.726;2023-03-15T03:31:26;99786.74;;;1.28;89.27
51147;BME280;37207;53.060;18.726;2023-03-15T03:33:55;99795.38;;;1.25;89.14
51147;BME280;37207;53.060;18.726;2023-03-15T03:36:22;99803.91;;;1.24;89.20
51147;BME280;37207;53.060;18.726;2023-03-15T03:38:51;99808.25;;;1.22;89.24
51147;BME280;37207;53.060;18.726;2023-03-15T03:41:20;99816.50;;;1.20;89.14
51147;BME280;37207;53.060;18.726;2023-03-15T03:43:46;99818.96;;;1.18;89.15
51147;BME280;37207;53.060;18.726;2023-03-15T03:46:13;99816.61;;;1.16;89.25
51147;BME280;37207;53.060;18.726;2023-03-15T03:48:45;99824.34;;;1.15;89.39
51147;BME280;37207;53.060;18.726;2023-03-15T03:51:11;99826.91;;;1.13;89.20
51147;BME280;37207;53.060;18.726;2023-03-15T03:53:38;99830.86;;;1.11;89.28
51147;BME280;37207;53.060;18.726;2023-03-15T03:56:05;99839.08;;;1.11;89.39
51147;BME280;37207;53.060;18.726;2023-03-15T03:58:33;99841.67;;;1.11;89.34
51147;BME280;37207;53.060;18.726;2023-03-15T04:01:15;99848.42;;;1.08;89.44
51147;BME280;37207;53.060;18.726;2023-03-15T04:03:42;99843.13;;;1.06;89.47
51147;BME280;37207;53.060;18.726;2023-03-15T04:06:13;99843.10;;;1.03;89.48
51147;BME280;37207;53.060;18.726;2023-03-15T04:08:43;99851.26;;;1.00;89.27
51147;BME280;37207;53.060;18.726;2023-03-15T04:11:13;99851.06;;;0.99;89.24
51147;BME280;37207;53.060;18.726;2023-03-15T04:13:43;99852.27;;;0.97;89.30
51147;BME280;37207;53.060;18.726;2023-03-15T04:16:11;99853.67;;;0.97;89.07
51147;BME280;37207;53.060;18.726;2023-03-15T04:19:01;99854.73;;;0.98;89.15
51147;BME280;37207;53.060;18.726;2023-03-15T04:21:31;99859.39;;;1.01;89.22
51147;BME280;37207;53.060;18.726;2023-03-15T04:24:03;99864.48;;;1.02;89.01
51147;BME280;37207;53.060;18.726;2023-03-15T04:26:56;99866.06;;;1.03;88.78
51147;BME280;37207;53.060;18.726;2023-03-15T04:29:41;99862.39;;;1.02;88.58
51147;BME280;37207;53.060;18.726;2023-03-15T04:32:38;99861.98;;;1.00;88.56
51147;BME280;37207;53.060;18.726;2023-03-15T04:35:29;99866.33;;;0.98;88.64
51147;BME280;37207;53.060;18.726;2023-03-15T04:38:26;99872.16;;;0.95;88.52
51147;BME280;37207;53.060;18.726;2023-03-15T04:41:07;99877.14;;;0.92;88.49
51147;BME280;37207;53.060;18.726;2023-03-15T04:44:03;99876.23;;;0.89;88.49
51147;BME280;37207;53.060;18.726;2023-03-15T04:46:45;99881.92;;;0.86;88.48
51147;BME280;37207;53.060;18.726;2023-03-15T04:49:20;99888.06;;;0.84;88.49
51147;BME280;37207;53.060;18.726;2023-03-15T04:51:59;99890.77;;;0.82;88.52
51147;BME280;37207;53.060;18.726;2023-03-15T04:54:35;99897.33;;;0.81;88.58
51147;BME280;37207;53.060;18.726;2023-03-15T04:57:17;99902.33;;;0.80;88.52
51147;BME280;37207;53.060;18.726;2023-03-15T05:00:09;99905.14;;;0.79;88.44
51147;BME280;37207;53.060;18.726;2023-03-15T05:02:56;99906.71;;;0.78;88.73
51147;BME280;37207;53.060;18.726;2023-03-15T05:05:55;99913.15;;;0.79;88.59
51147;BME280;37207;53.060;18.726;2023-03-15T05:08:25;99920.83;;;0.77;88.70
51147;BME280;37207;53.060;18.726;2023-03-15T05:11:12;99928.66;;;0.74;88.61
51147;BME280;37207;53.060;18.726;2023-03-15T05:14:11;99935.15;;;0.73;88.70
51147;BME280;37207;53.060;18.726;2023-03-15T05:16:49;99935.77;;;0.70;88.59
51147;BME280;37207;53.060;18.726;2023-03-15T05:19:39;99936.52;;;0.69;88.47
51147;BME280;37207;53.060;18.726;2023-03-15T05:22:27;99940.91;;;0.69;88.48
51147;BME280;37207;53.060;18.726;2023-03-15T05:25:12;99945.84;;;0.69;88.58
51147;BME280;37207;53.060;18.726;2023-03-15T05:28:01;99955.81;;;0.68;88.63
51147;BME280;37207;53.060;18.726;2023-03-15T05:30:48;99953.27;;;0.67;88.57
51147;BME280;37207;53.060;18.726;2023-03-15T05:33:45;99956.73;;;0.68;88.56
51147;BME280;37207;53.060;18.726;2023-03-15T05:36:33;99973.70;;;0.69;88.69
51147;BME280;37207;53.060;18.726;2023-03-15T05:39:18;99974.54;;;0.73;88.76
51147;BME280;37207;53.060;18.726;2023-03-15T05:41:57;99982.11;;;0.74;88.66
51147;BME280;37207;53.060;18.726;2023-03-15T05:44:35;99992.98;;;0.77;88.59
51147;BME280;37207;53.060;18.726;2023-03-15T05:47:01;99997.04;;;0.82;88.77
51147;BME280;37207;53.060;18.726;2023-03-15T05:49:47;100000.06;;;0.89;88.67
51147;BME280;37207;53.060;18.726;2023-03-15T05:52:34;100002.23;;;0.92;88.57
51147;BME280;37207;53.060;18.726;2023-03-15T05:55:26;100004.67;;;0.94;88.35
51147;BME280;37207;53.060;18.726;2023-03-15T05:58:12;100010.73;;;0.97;88.30
51147;BME280;37207;53.060;18.726;2023-03-15T06:01:03;100012.70;;;0.98;88.06
51147;BME280;37207;53.060;18.726;2023-03-15T06:03:45;100021.98;;;1.00;87.85
51147;BME280;37207;53.060;18.726;2023-03-15T06:06:16;100025.58;;;1.02;87.66
51147;BME280;37207;53.060;18.726;2023-03-15T06:08:44;100032.57;;;1.07;87.78
51147;BME280;37207;53.060;18.726;2023-03-15T06:11:10;100034.03;;;1.16;87.81
51147;BME280;37207;53.060;18.726;2023-03-15T06:13:37;100043.05;;;1.25;87.60
51147;BME280;37207;53.060;18.726;2023-03-15T06:16:08;100053.84;;;1.39;87.31
51147;BME280;37207;53.060;18.726;2023-03-15T06:18:36;100060.24;;;1.60;87.26
51147;BME280;37207;53.060;18.726;2023-03-15T06:21:03;100060.05;;;1.76;87.01
51147;BME280;37207;53.060;18.726;2023-03-15T06:23:29;100067.84;;;1.98;86.86
51147;BME280;37207;53.060;18.726;2023-03-15T06:25:56;100073.86;;;2.11;86.01
51147;BME280;37207;53.060;18.726;2023-03-15T06:28:23;100075.92;;;2.14;85.80
51147;BME280;37207;53.060;18.726;2023-03-15T06:30:54;100074.95;;;2.23;85.96
51147;BME280;37207;53.060;18.726;2023-03-15T06:33:23;100079.52;;;2.37;85.28
51147;BME280;37207;53.060;18.726;2023-03-15T06:35:50;100082.89;;;2.50;85.00
51147;BME280;37207;53.060;18.726;2023-03-15T06:38:16;100091.90;;;2.71;84.63
51147;BME280;37207;53.060;18.726;2023-03-15T06:40:43;100094.20;;;2.91;84.18
51147;BME280;37207;53.060;18.726;2023-03-15T06:43:09;100092.66;;;3.22;83.40
51147;BME280;37207;53.060;18.726;2023-03-15T06:45:40;100097.06;;;3.29;82.86
51147;BME280;37207;53.060;18.726;2023-03-15T06:48:06;100100.25;;;3.28;82.61
51147;BME280;37207;53.060;18.726;2023-03-15T06:50:33;100100.88;;;3.20;81.96
51147;BME280;37207;53.060;18.726;2023-03-15T06:52:59;100104.05;;;3.18;81.82
51147;BME280;37207;53.060;18.726;2023-03-15T06:55:26;100110.64;;;3.08;81.35
51147;BME280;37207;53.060;18.726;2023-03-15T06:57:53;100117.61;;;2.95;80.86
51147;BME280;37207;53.060;18.726;2023-03-15T07:00:20;100120.64;;;2.82;81.43
51147;BME280;37207;53.060;18.726;2023-03-15T07:02:47;100128.11;;;2.74;82.01
51147;BME280;37207;53.060;18.726;2023-03-15T07:05:14;100127.91;;;2.66;81.83
51147;BME280;37207;53.060;18.726;2023-03-15T07:07:41;100134.27;;;2.58;82.04
51147;BME280;37207;53.060;18.726;2023-03-15T07:10:08;100145.81;;;2.53;81.77
51147;BME280;37207;53.060;18.726;2023-03-15T07:12:34;100150.13;;;2.45;81.49
51147;BME280;37207;53.060;18.726;2023-03-15T07:15:01;100156.45;;;2.37;81.62
51147;BME280;37207;53.060;18.726;2023-03-15T07:17:28;100158.80;;;2.34;81.97
51147;BME280;37207;53.060;18.726;2023-03-15T07:19:54;100160.27;;;2.35;82.47
51147;BME280;37207;53.060;18.726;2023-03-15T07:22:21;100160.21;;;2.34;81.72
51147;BME280;37207;53.060;18.726;2023-03-15T07:24:48;100165.86;;;2.30;81.66
51147;BME280;37207;53.060;18.726;2023-03-15T07:27:14;100165.48;;;2.30;81.86
51147;BME280;37207;53.060;18.726;2023-03-15T07:29:41;100165.46;;;2.30;81.66
51147;BME280;37207;53.060;18.726;2023-03-15T07:32:08;100172.27;;;2.32;81.90
51147;BME280;37207;53.060;18.726;2023-03-15T07:34:34;100177.10;;;2.34;81.79
51147;BME280;37207;53.060;18.726;2023-03-15T07:37:01;100176.08;;;2.35;81.81
51147;BME280;37207;53.060;18.726;2023-03-15T07:39:27;100175.70;;;2.35;81.63
51147;BME280;37207;53.060;18.726;2023-03-15T07:41:58;100181.58;;;2.36;81.90
51147;BME280;37207;53.060;18.726;2023-03-15T07:44:31;100184.43;;;2.36;81.86
51147;BME280;37207;53.060;18.726;2023-03-15T07:46:57;100185.52;;;2.43;82.14
51147;BME280;37207;53.060;18.726;2023-03-15T07:49:24;100184.98;;;2.57;82.45
51147;BME280;37207;53.060;18.726;2023-03-15T07:51:51;100187.69;;;2.74;81.86
51147;BME280;37207;53.060;18.726;2023-03-15T07:54:17;100189.58;;;2.90;81.75
51147;BME280;37207;53.060;18.726;2023-03-15T07:56:44;100192.92;;;3.03;81.63
51147;BME280;37207;53.060;18.726;2023-03-15T07:59:11;100192.25;;;3.16;81.51
51147;BME280;37207;53.060;18.726;2023-03-15T08:01:38;100196.92;;;3.27;81.16
51147;BME280;37207;53.060;18.726;2023-03-15T08:04:04;100198.69;;;3.30;80.02
51147;BME280;37207;53.060;18.726;2023-03-15T08:06:31;100199.70;;;3.32;80.31
51147;BME280;37207;53.060;18.726;2023-03-15T08:08:57;100202.92;;;3.33;79.71
51147;BME280;37207;53.060;18.726;2023-03-15T08:11:24;100205.59;;;3.33;79.96
51147;BME280;37207;53.060;18.726;2023-03-15T08:13:50;100204.20;;;3.33;79.47
51147;BME280;37207;53.060;18.726;2023-03-15T08:19:59;100212.73;;;3.60;78.58
51147;BME280;37207;53.060;18.726;2023-03-15T08:22:31;100213.43;;;3.66;78.56
51147;BME280;37207;53.060;18.726;2023-03-15T08:24:57;100214.91;;;3.62;78.82
51147;BME280;37207;53.060;18.726;2023-03-15T08:27:24;100221.52;;;3.62;78.26
51147;BME280;37207;53.060;18.726;2023-03-15T08:29:51;100222.29;;;3.57;78.24
51147;BME280;37207;53.060;18.726;2023-03-15T08:32:18;100223.89;;;3.58;78.77
51147;BME280;37207;53.060;18.726;2023-03-15T08:34:45;100229.91;;;3.64;78.59
51147;BME280;37207;53.060;18.726;2023-03-15T08:37:12;100237.64;;;3.75;79.21
51147;BME280;37207;53.060;18.726;2023-03-15T08:39:38;100239.67;;;3.97;77.97
51147;BME280;37207;53.060;18.726;2023-03-15T08:42:06;100239.80;;;4.01;77.85
51147;BME280;37207;53.060;18.726;2023-03-15T08:44:32;100246.48;;;3.98;77.57
51147;BME280;37207;53.060;18.726;2023-03-15T08:46:59;100253.60;;;3.90;76.88
51147;BME280;37207;53.060;18.726;2023-03-15T08:49:25;100255.82;;;3.86;76.83
51147;BME280;37207;53.060;18.726;2023-03-15T08:51:52;100259.67;;;3.94;77.20
51147;BME280;37207;53.060;18.726;2023-03-15T08:54:18;100263.13;;;3.94;76.95
51147;BME280;37207;53.060;18.726;2023-03-15T08:56:45;100271.30;;;4.31;76.62
51147;BME280;37207;53.060;18.726;2023-03-15T08:59:11;100279.88;;;4.59;75.99
51147;BME280;37207;53.060;18.726;2023-03-15T09:01:38;100282.98;;;4.55;76.22
51147;BME280;37207;53.060;18.726;2023-03-15T09:04:05;100287.23;;;4.59;76.29
51147;BME280;37207;53.060;18.726;2023-03-15T09:06:32;100296.66;;;4.50;75.96
51147;BME280;37207;53.060;18.726;2023-03-15T09:08:58;100306.88;;;4.30;75.26
51147;BME280;37207;53.060;18.726;2023-03-15T09:11:25;100305.98;;;4.07;75.31
51147;BME280;37207;53.060;18.726;2023-03-15T09:13:51;100307.58;;;3.89;75.53
51147;BME280;37207;53.060;18.726;2023-03-15T09:16:18;100313.03;;;3.72;75.78
51147;BME280;37207;53.060;18.726;2023-03-15T09:18:44;100311.04;;;3.56;76.14
51147;BME280;37207;53.060;18.726;2023-03-15T09:21:11;100318.59;;;3.49;76.67
51147;BME280;37207;53.060;18.726;2023-03-15T09:23:38;100328.44;;;3.45;76.81
51147;BME280;37207;53.060;18.726;2023-03-15T09:26:04;100329.66;;;3.39;76.89
51147;BME280;37207;53.060;18.726;2023-03-15T09:28:31;100338.02;;;3.36;77.37
51147;BME280;37207;53.060;18.726;2023-03-15T09:30:57;100337.82;;;3.33;77.59
51147;BME280;37207;53.060;18.726;2023-03-15T09:33:24;100343.48;;;3.34;78.04
51147;BME280;37207;53.060;18.726;2023-03-15T09:35:51;100351.88;;;3.34;77.63
51147;BME280;37207;53.060;18.726;2023-03-15T09:38:18;100354.53;;;3.30;77.60
51147;BME280;37207;53.060;18.726;2023-03-15T09:40:45;100358.48;;;3.29;77.85
51147;BME280;37207;53.060;18.726;2023-03-15T09:43:29;100363.36;;;3.27;77.76
51147;BME280;37207;53.060;18.726;2023-03-15T09:46:13;100364.25;;;3.29;78.35
51147;BME280;37207;53.060;18.726;2023-03-15T09:49:06;100366.05;;;3.33;78.13
51147;BME280;37207;53.060;18.726;2023-03-15T09:51:48;100370.00;;;3.29;77.53
51147;BME280;37207;53.060;18.726;2023-03-15T09:54:19;100368.73;;;3.23;77.58
51147;BME280;37207;53.060;18.726;2023-03-15T09:56:55;100369.44;;;3.18;77.54
51147;BME280;37207;53.060;18.726;2023-03-15T09:59:32;100373.55;;;3.13;77.60
51147;BME280;37207;53.060;18.726;2023-03-15T10:02:20;100378.27;;;3.14;77.84
51147;BME280;37207;53.060;18.726;2023-03-15T10:04:51;100376.95;;;3.20;78.27
51147;BME280;37207;53.060;18.726;2023-03-15T10:07:21;100378.60;;;3.26;78.16
51147;BME280;37207;53.060;18.726;2023-03-15T10:09:47;100379.05;;;3.31;77.98
51147;BME280;37207;53.060;18.726;2023-03-15T10:12:15;100379.64;;;3.35;77.77
51147;BME280;37207;53.060;18.726;2023-03-15T10:20:35;100391.41;;;3.42;77.56
51147;BME280;37207;53.060;18.726;2023-03-15T10:23:19;100389.81;;;3.50;77.87
51147;BME280;37207;53.060;18.726;2023-03-15T10:25:50;100392.55;;;3.59;77.66
51147;BME280;37207;53.060;18.726;2023-03-15T10:28:26;100389.25;;;3.73;77.54
51147;BME280;37207;53.060;18.726;2023-03-15T10:30:57;100390.10;;;3.96;77.06
51147;BME280;37207;53.060;18.726;2023-03-15T10:33:35;100383.65;;;4.12;77.17
51147;BME280;37207;53.060;18.726;2023-03-15T10:36:12;100388.98;;;4.43;76.61
51147;BME280;37207;53.060;18.726;2023-03-15T10:38:39;100389.79;;;4.54;76.37
51147;BME280;37207;53.060;18.726;2023-03-15T10:41:07;100388.80;;;4.56;76.48
51147;BME280;37207;53.060;18.726;2023-03-15T10:43:36;100390.89;;;4.59;76.41
51147;BME280;37207;53.060;18.726;2023-03-15T10:46:05;100388.25;;;4.61;76.00
51147;BME280;37207;53.060;18.726;2023-03-15T10:48:38;100392.70;;;4.58;75.68
51147;BME280;37207;53.060;18.726;2023-03-15T10:51:12;100394.14;;;4.55;75.75
51147;BME280;37207;53.060;18.726;2023-03-15T10:53:51;100400.90;;;4.50;75.08
51147;BME280;37207;53.060;18.726;2023-03-15T10:56:24;100396.92;;;4.38;75.08
51147;BME280;37207;53.060;18.726;2023-03-15T10:58:55;100400.15;;;4.29;75.20
51147;BME280;37207;53.060;18.726;2023-03-15T11:01:27;100401.76;;;4.20;74.99
51147;BME280;37207;53.060;18.726;2023-03-15T11:04:21;100397.27;;;4.12;75.37
51147;BME280;37207;53.060;18.726;2023-03-15T11:09:21;100405.23;;;3.96;75.49
51147;BME280;37207;53.060;18.726;2023-03-15T11:12:03;100409.44;;;3.92;75.49
51147;BME280;37207;53.060;18.726;2023-03-15T11:14:41;100413.30;;;3.91;75.56
51147;BME280;37207;53.060;18.726;2023-03-15T11:17:26;100417.30;;;3.91;75.38
51147;BME280;37207;53.060;18.726;2023-03-15T11:19:55;100420.61;;;3.92;75.55
51147;BME280;37207;53.060;18.726;2023-03-15T11:22:23;100419.83;;;3.92;75.49
51147;BME280;37207;53.060;18.726;2023-03-15T11:24:51;100422.20;;;3.89;74.99
51147;BME280;37207;53.060;18.726;2023-03-15T11:27:21;100424.84;;;3.87;75.02
51147;BME280;37207;53.060;18.726;2023-03-15T11:29:51;100422.11;;;3.87;75.40
51147;BME280;37207;53.060;18.726;2023-03-15T11:32:22;100423.30;;;3.93;75.79
51147;BME280;37207;53.060;18.726;2023-03-15T11:35:03;100427.59;;;4.15;76.24
51147;BME280;37207;53.060;18.726;2023-03-15T11:37:37;100428.96;;;4.29;75.28
51147;BME280;37207;53.060;18.726;2023-03-15T11:40:32;100431.91;;;4.30;74.48
51147;BME280;37207;53.060;18.726;2023-03-15T11:43:03;100438.39;;;4.19;74.39
51147;BME280;37207;53.060;18.726;2023-03-15T11:45:43;100430.70;;;4.09;74.49
51147;BME280;37207;53.060;18.726;2023-03-15T11:48:36;100430.95;;;4.06;74.50
51147;BME280;37207;53.060;18.726;2023-03-15T11:51:07;100433.30;;;4.15;74.76
51147;BME280;37207;53.060;18.726;2023-03-15T11:53:42;100431.88;;;4.30;74.57
51147;BME280;37207;53.060;18.726;2023-03-15T11:56:26;100432.05;;;4.45;74.06
51147;BME280;37207;53.060;18.726;2023-03-15T11:59:09;100427.10;;;4.68;73.94
51147;BME280;37207;53.060;18.726;2023-03-15T12:01:45;100429.27;;;4.81;73.53
51147;BME280;37207;53.060;18.726;2023-03-15T12:06:52;100442.85;;;4.89;72.59
51147;BME280;37207;53.060;18.726;2023-03-15T12:12:01;100436.73;;;5.02;71.86
51147;BME280;37207;53.060;18.726;2023-03-15T12:14:31;100438.33;;;5.41;72.52
51147;BME280;37207;53.060;18.726;2023-03-15T12:23:39;100445.88;;;5.83;68.65
51147;BME280;37207;53.060;18.726;2023-03-15T12:31:06;100437.92;;;5.62;67.66
51147;BME280;37207;53.060;18.726;2023-03-15T12:33:49;100438.95;;;5.56;67.66
51147;BME280;37207;53.060;18.726;2023-03-15T12:36:36;100439.95;;;6.11;65.85
51147;BME280;37207;53.060;18.726;2023-03-15T12:41:47;100439.22;;;8.17;62.89
51147;BME280;37207;53.060;18.726;2023-03-15T12:52:00;100440.15;;;8.91;60.87
51147;BME280;37207;53.060;18.726;2023-03-15T12:54:36;100443.27;;;9.42;57.41
51147;BME280;37207;53.060;18.726;2023-03-15T12:57:05;100437.41;;;9.34;58.90
51147;BME280;37207;53.060;18.726;2023-03-15T13:02:58;100433.55;;;8.46;60.34
51147;BME280;37207;53.060;18.726;2023-03-15T13:05:19;100439.59;;;7.99;58.79
51147;BME280;37207;53.060;18.726;2023-03-15T13:07:55;100440.75;;;8.00;58.96
51147;BME280;37207;53.060;18.726;2023-03-15T13:11:39;100438.88;;;8.59;56.71
51147;BME280;37207;53.060;18.726;2023-03-15T13:14:03;100433.88;;;9.22;56.04
51147;BME280;37207;53.060;18.726;2023-03-15T13:16:56;100440.70;;;9.59;53.87
51147;BME280;37207;53.060;18.726;2023-03-15T13:19:48;100432.27;;;9.99;54.86
51147;BME280;37207;53.060;18.726;2023-03-15T13:22:24;100439.77;;;10.26;54.43
51147;BME280;37207;53.060;18.726;2023-03-15T13:25:08;100432.22;;;10.16;55.22
51147;BME280;37207;53.060;18.726;2023-03-15T13:28:05;100435.39;;;10.21;52.93
51147;BME280;37207;53.060;18.726;2023-03-15T13:30:39;100438.56;;;10.36;53.80
51147;BME280;37207;53.060;18.726;2023-03-15T13:33:20;100449.58;;;10.54;52.88
51147;BME280;37207;53.060;18.726;2023-03-15T13:35:56;100454.58;;;10.65;54.06
51147;BME280;37207;53.060;18.726;2023-03-15T13:40:54;100461.91;;;10.28;54.52
51147;BME280;37207;53.060;18.726;2023-03-15T13:43:36;100468.83;;;9.84;52.82
51147;BME280;37207;53.060;18.726;2023-03-15T13:46:04;100462.88;;;9.28;53.64
51147;BME280;37207;53.060;18.726;2023-03-15T13:48:32;100461.47;;;8.87;55.03
51147;BME280;37207;53.060;18.726;2023-03-15T13:53:41;100473.10;;;8.31;56.40
51147;BME280;37207;53.060;18.726;2023-03-15T13:56:14;100472.55;;;8.02;56.50
51147;BME280;37207;53.060;18.726;2023-03-15T13:58:41;100473.54;;;7.84;56.82
51147;BME280;37207;53.060;18.726;2023-03-15T14:01:11;100474.47;;;7.65;57.53
51147;BME280;37207;53.060;18.726;2023-03-15T14:03:40;100473.95;;;7.44;58.00
51147;BME280;37207;53.060;18.726;2023-03-15T14:06:12;100473.41;;;7.25;58.55
51147;BME280;37207;53.060;18.726;2023-03-15T14:08:46;100475.27;;;7.06;59.02
51147;BME280;37207;53.060;18.726;2023-03-15T14:11:30;100477.72;;;6.86;57.77
51147;BME280;37207;53.060;18.726;2023-03-15T14:13:59;100486.00;;;6.57;58.28
51147;BME280;37207;53.060;18.726;2023-03-15T14:19:22;100488.17;;;6.33;59.15
51147;BME280;37207;53.060;18.726;2023-03-15T14:21:59;100487.85;;;6.42;60.26